createdAt,value
2019-03-12T00:01:02.102Z,78.92
2019-03-12T00:03:29.661Z,78.73
2019-03-12T00:05:57.753Z,78.61
2019-03-12T00:08:25.358Z,78.07
2019-03-12T00:10:52.981Z,78.80
2019-03-12T00:13:20.494Z,78.80
2019-03-12T00:15:48.402Z,78.18
2019-03-12T00:18:15.931Z,78.31
2019-03-12T00:20:43.553Z,79.01
2019-03-12T00:23:11.419Z,79.26
2019-03-12T00:25:39.228Z,79.26
2019-03-12T00:28:06.820Z,79.64
2019-03-12T00:30:34.351Z,79.53
2019-03-12T00:33:04.428Z,79.67
2019-03-12T00:35:32.315Z,79.54
2019-03-12T00:37:59.844Z,79.53
2019-03-12T00:40:27.827Z,80.01
2019-03-12T00:42:55.358Z,79.59
2019-03-12T00:45:22.953Z,79.44
2019-03-12T00:47:50.460Z,80.15
2019-03-12T00:50:18.231Z,79.62
2019-03-12T00:52:45.673Z,79.57
2019-03-12T00:57:45.673Z,80.46
2019-03-12T01:00:13.658Z,80.01
2019-03-12T01:02:41.189Z,79.89
2019-03-12T01:05:08.754Z,79.89
2019-03-12T01:07:36.262Z,80.10
2019-03-12T01:10:04.024Z,79.88
2019-03-12T01:12:31.547Z,80.55
2019-03-12T01:14:59.109Z,80.12
2019-03-12T01:17:26.666Z,80.43
2019-03-12T01:19:54.518Z,79.81
2019-03-12T01:22:22.336Z,79.81
2019-03-12T01:24:49.945Z,80.22
2019-03-12T01:27:17.458Z,79.94
2019-03-12T01:29:45.411Z,80.09
2019-03-12T01:32:12.995Z,80.09
2019-03-12T01:34:40.553Z,80.20
2019-03-12T01:37:08.558Z,80.26
2019-03-12T01:39:36.011Z,80.26
2019-03-12T01:42:03.511Z,80.60
2019-03-12T01:44:31.288Z,80.91
2019-03-12T01:46:58.815Z,80.29
2019-03-12T01:49:26.359Z,80.29
2019-03-12T01:51:55.792Z,80.59
2019-03-12T01:54:23.356Z,80.59
2019-03-12T01:56:50.921Z,80.92
2019-03-12T01:59:18.718Z,80.51
2019-03-12T02:01:46.633Z,80.57
2019-03-12T02:04:14.197Z,80.57
2019-03-12T02:06:41.665Z,81.29
2019-03-12T02:09:11.135Z,80.67
2019-03-12T02:11:38.736Z,81.19
2019-03-12T02:14:06.345Z,81.19
2019-03-12T02:16:35.089Z,81.00
2019-03-12T02:19:07.830Z,81.00
2019-03-12T02:21:35.411Z,81.50
2019-03-12T02:24:02.886Z,81.18
2019-03-12T02:26:30.422Z,81.18
2019-03-12T02:28:58.301Z,81.43
2019-03-12T02:31:25.845Z,81.34
2019-03-12T02:33:53.477Z,81.20
2019-03-12T02:36:21.068Z,80.94
2019-03-12T02:38:48.669Z,80.99
2019-03-12T02:41:16.190Z,81.42
2019-03-12T02:43:43.724Z,81.28
2019-03-12T02:46:13.052Z,81.04
2019-03-12T02:48:40.579Z,81.40
2019-03-12T02:51:08.233Z,80.87
2019-03-12T02:53:36.067Z,80.87
2019-03-12T02:56:03.646Z,80.72
2019-03-12T02:58:31.190Z,81.19
2019-03-12T03:00:59.106Z,81.50
2019-03-12T03:03:26.709Z,81.08
2019-03-12T03:06:00.955Z,81.15
2019-03-12T03:08:31.396Z,81.59
2019-03-12T03:10:58.977Z,81.20
2019-03-12T03:13:26.549Z,81.12
2019-03-12T03:15:54.149Z,81.12
2019-03-12T03:18:22.141Z,81.33
2019-03-12T03:20:49.589Z,81.33
2019-03-12T03:23:23.421Z,81.67
2019-03-12T03:25:51.275Z,81.11
2019-03-12T03:28:18.870Z,81.41
2019-03-12T03:30:46.427Z,81.57
2019-03-12T03:33:14.582Z,81.57
2019-03-12T03:35:42.118Z,81.04
2019-03-12T03:38:12.497Z,80.94
2019-03-12T03:40:40.032Z,80.39
2019-03-12T03:43:07.562Z,81.10
2019-03-12T03:45:35.073Z,80.51
2019-03-12T03:48:03.101Z,80.51
2019-03-12T03:50:30.640Z,80.86
2019-03-12T03:52:58.565Z,80.86
2019-03-12T03:55:26.844Z,81.09
2019-03-12T03:57:54.453Z,81.09
2019-03-12T04:00:22.068Z,80.46
2019-03-12T04:02:49.602Z,81.17
2019-03-12T04:05:17.514Z,80.67
2019-03-12T04:07:45.082Z,81.18
2019-03-12T04:10:12.624Z,80.73
2019-03-12T04:12:41.827Z,80.73
2019-03-12T04:15:11.178Z,80.43
2019-03-12T04:17:38.752Z,80.76
2019-03-12T04:20:06.656Z,80.32
2019-03-12T04:22:34.183Z,80.35
2019-03-12T04:25:01.751Z,80.35
2019-03-12T04:27:29.833Z,80.19
2019-03-12T04:29:57.354Z,80.19
2019-03-12T04:32:24.901Z,79.79
2019-03-12T04:34:52.750Z,79.71
2019-03-12T04:37:20.699Z,80.22
2019-03-12T04:39:48.261Z,80.13
2019-03-12T04:42:15.863Z,79.95
2019-03-12T04:44:43.419Z,79.86
2019-03-12T04:47:10.995Z,79.96
2019-03-12T04:49:38.941Z,79.91
2019-03-12T04:52:06.439Z,79.60
2019-03-12T04:54:33.934Z,79.50
2019-03-12T04:57:01.493Z,79.04
2019-03-12T04:59:29.367Z,79.23
2019-03-12T05:01:56.999Z,78.92
2019-03-12T05:04:24.861Z,78.93
2019-03-12T05:06:52.809Z,78.76
2019-03-12T05:09:20.330Z,78.76
2019-03-12T05:11:47.825Z,78.97
2019-03-12T05:14:15.792Z,78.45
2019-03-12T05:16:43.332Z,78.45
2019-03-12T05:19:10.944Z,78.76
2019-03-12T05:21:39.050Z,78.88
2019-03-12T05:24:06.676Z,78.30
2019-03-12T05:26:34.271Z,78.83
2019-03-12T05:29:01.811Z,78.32
2019-03-12T05:31:29.788Z,78.41
2019-03-12T05:33:57.397Z,78.57
2019-03-12T05:36:24.925Z,78.67
2019-03-12T05:38:52.436Z,78.42
2019-03-12T05:41:19.988Z,78.42
2019-03-12T05:43:47.598Z,78.26
2019-03-12T05:46:15.511Z,78.42
2019-03-12T05:48:42.981Z,77.95
2019-03-12T05:51:10.621Z,77.81
2019-03-12T05:53:38.495Z,78.06
2019-03-12T05:56:06.123Z,78.62
2019-03-12T05:58:34.024Z,78.05
2019-03-12T06:01:01.985Z,78.12
2019-03-12T06:03:29.501Z,78.38
2019-03-12T06:05:57.029Z,78.38
2019-03-12T06:08:24.895Z,78.12
2019-03-12T06:10:54.274Z,77.60
2019-03-12T06:13:21.845Z,77.87
2019-03-12T06:15:49.741Z,77.82
2019-03-12T06:18:38.416Z,77.95
2019-03-12T06:21:06.347Z,77.95
2019-03-12T06:23:33.812Z,77.04
2019-03-12T06:26:01.398Z,77.22
2019-03-12T06:28:31.155Z,76.84
2019-03-12T06:31:16.107Z,76.84
2019-03-12T06:33:53.402Z,77.11
2019-03-12T06:36:35.401Z,77.17
2019-03-12T06:39:36.789Z,77.17
2019-03-12T06:42:14.109Z,76.16
2019-03-12T06:45:18.864Z,76.41
2019-03-12T06:48:20.351Z,76.41
2019-03-12T06:51:16.346Z,75.97
2019-03-12T06:54:05.790Z,75.78
2019-03-12T06:56:52.569Z,75.75
2019-03-12T06:59:39.756Z,75.75
2019-03-12T07:02:17.569Z,75.96
2019-03-12T07:04:55.485Z,76.06
2019-03-12T07:07:25.109Z,75.43
2019-03-12T07:10:11.572Z,75.43
2019-03-12T07:12:45.853Z,75.42
2019-03-12T07:15:28.548Z,75.19
2019-03-12T07:18:07.946Z,74.88
2019-03-12T07:20:53.985Z,74.63
2019-03-12T07:23:39.689Z,74.38
2019-03-12T07:26:15.769Z,74.19
2019-03-12T07:29:02.201Z,73.97
2019-03-12T07:31:48.087Z,73.05
2019-03-12T07:34:36.896Z,73.16
2019-03-12T07:37:24.426Z,73.16
2019-03-12T07:40:19.839Z,73.19
2019-03-12T07:42:55.386Z,73.01
2019-03-12T07:45:42.243Z,72.79
2019-03-12T07:48:19.822Z,72.67
2019-03-12T07:51:09.032Z,72.15
2019-03-12T07:53:59.770Z,72.15
2019-03-12T07:56:42.163Z,72.24
2019-03-12T07:59:27.678Z,72.02
2019-03-12T08:02:14.121Z,71.46
2019-03-12T08:05:13.140Z,71.46
2019-03-12T08:08:14.851Z,71.42
2019-03-12T08:11:16.861Z,71.42
2019-03-12T08:14:03.073Z,71.48
2019-03-12T08:16:55.865Z,71.48
2019-03-12T08:19:35.908Z,70.26
2019-03-12T08:22:31.735Z,70.26
2019-03-12T08:25:18.237Z,69.61
2019-03-12T08:27:56.798Z,69.61
2019-03-12T08:30:49.294Z,69.70
2019-03-12T08:33:49.862Z,69.70
2019-03-12T08:36:15.478Z,69.29
2019-03-12T08:39:05.032Z,69.18
2019-03-12T08:42:00.254Z,69.18
2019-03-12T08:44:37.544Z,68.89
2019-03-12T08:47:11.516Z,68.90
2019-03-12T08:50:01.934Z,68.71
2019-03-12T08:52:40.409Z,68.71
2019-03-12T08:55:28.828Z,68.69
2019-03-12T08:58:30.119Z,68.26
2019-03-12T09:01:17.021Z,68.26
2019-03-12T09:04:12.510Z,67.92
2019-03-12T09:06:49.084Z,67.09
2019-03-12T09:09:43.715Z,67.09
2019-03-12T09:12:29.008Z,66.41
2019-03-12T09:15:21.531Z,66.41
2019-03-12T09:18:14.285Z,66.12
2019-03-12T09:21:00.688Z,65.51
2019-03-12T09:24:02.671Z,65.51
2019-03-12T09:26:51.810Z,65.34
2019-03-12T09:29:33.925Z,64.97
2019-03-12T09:32:16.128Z,63.92
2019-03-12T09:35:10.915Z,63.94
2019-03-12T09:38:12.561Z,64.01
2019-03-12T09:40:54.230Z,64.01
2019-03-12T09:43:48.188Z,63.37
2019-03-12T09:46:38.039Z,63.37
2019-03-12T09:49:22.859Z,63.41
2019-03-12T09:52:16.699Z,63.42
2019-03-12T09:54:57.873Z,63.26
2019-03-12T09:57:43.225Z,63.26
2019-03-12T10:00:32.147Z,64.23
2019-03-12T10:03:16.097Z,64.23
2019-03-12T10:06:11.181Z,63.93
2019-03-12T10:09:09.929Z,63.93
2019-03-12T10:11:56.333Z,63.93
2019-03-12T10:14:40.878Z,63.56
2019-03-12T10:17:30.771Z,63.23
2019-03-12T10:20:32.495Z,63.23
2019-03-12T10:23:17.588Z,62.94
2019-03-12T10:26:07.173Z,62.69
2019-03-12T10:28:55.502Z,62.56
2019-03-12T10:31:42.345Z,62.68
2019-03-12T10:34:34.564Z,62.50
2019-03-12T10:37:39.118Z,62.13
2019-03-12T10:40:32.457Z,61.97
2019-03-12T10:43:31.066Z,62.21
2019-03-12T10:46:11.439Z,62.21
2019-03-12T10:48:41.219Z,61.49
2019-03-12T10:51:13.028Z,61.33
2019-03-12T10:53:40.597Z,61.31
2019-03-12T10:56:12.779Z,61.39
2019-03-12T10:58:40.380Z,61.48
2019-03-12T11:01:10.017Z,61.44
2019-03-12T11:03:37.544Z,61.38
2019-03-12T11:06:05.159Z,61.38
2019-03-12T11:08:34.750Z,61.32
2019-03-12T11:11:02.309Z,60.85
2019-03-12T11:13:34.831Z,59.74
2019-03-12T11:16:02.359Z,59.74
2019-03-12T11:18:32.954Z,57.90
2019-03-12T11:21:02.464Z,57.90
2019-03-12T11:23:30.072Z,57.05
2019-03-12T11:25:59.198Z,56.43
2019-03-12T11:28:35.852Z,56.43
2019-03-12T11:31:03.815Z,55.73
2019-03-12T11:33:31.347Z,55.73
2019-03-12T11:36:01.238Z,55.61
2019-03-12T11:38:28.777Z,54.66
2019-03-12T11:40:56.326Z,54.54
2019-03-12T11:43:25.573Z,53.29
2019-03-12T11:45:53.200Z,53.31
2019-03-12T11:48:20.826Z,53.31
2019-03-12T11:50:52.837Z,53.12
2019-03-12T11:53:22.865Z,52.95
2019-03-12T11:55:52.233Z,52.88
2019-03-12T11:58:21.649Z,52.76
2019-03-12T12:01:00.785Z,52.41
2019-03-12T12:03:28.602Z,52.16
2019-03-12T12:05:56.201Z,52.16
2019-03-12T12:08:25.867Z,51.53
2019-03-12T12:10:53.854Z,51.53
2019-03-12T12:13:23.277Z,51.29
2019-03-12T12:15:54.267Z,50.55
2019-03-12T12:18:28.241Z,50.55
2019-03-12T12:20:56.240Z,49.50
2019-03-12T12:23:22.282Z,48.52
2019-03-12T12:25:50.377Z,48.52
2019-03-12T12:28:17.863Z,47.92
2019-03-12T12:30:45.475Z,47.62
2019-03-12T12:33:20.664Z,48.08
2019-03-12T12:35:52.536Z,48.55
2019-03-12T12:38:25.740Z,48.76
2019-03-12T12:40:53.310Z,49.00
2019-03-12T12:43:20.829Z,48.94
2019-03-12T12:45:48.803Z,49.16
2019-03-12T12:48:16.759Z,49.50
2019-03-12T12:50:44.275Z,49.53
2019-03-12T12:53:12.226Z,49.48
2019-03-12T12:55:41.500Z,49.48
2019-03-12T12:58:09.134Z,49.65
2019-03-12T13:00:40.459Z,49.58
2019-03-12T13:03:19.920Z,48.94
2019-03-12T13:05:51.022Z,48.94
2019-03-12T13:08:18.634Z,49.07
2019-03-12T13:10:46.578Z,49.19
2019-03-12T13:13:18.155Z,49.24
2019-03-12T13:15:45.752Z,49.24
2019-03-12T13:18:16.349Z,48.76
2019-03-12T13:20:42.912Z,48.76
2019-03-12T13:23:10.358Z,49.12
2019-03-12T13:25:37.856Z,49.12
2019-03-12T13:28:05.821Z,49.05
2019-03-12T13:30:33.617Z,48.91
2019-03-12T13:33:02.241Z,48.62
2019-03-12T13:35:30.213Z,48.46
2019-03-12T13:37:57.736Z,48.46
2019-03-12T13:40:25.731Z,48.52
2019-03-12T13:43:02.985Z,48.27
2019-03-12T13:45:30.945Z,48.55
2019-03-12T13:47:58.755Z,48.55
2019-03-12T13:50:29.259Z,47.74
2019-03-12T13:52:57.218Z,47.74
2019-03-12T13:55:24.767Z,47.46
2019-03-12T13:57:52.751Z,47.58
2019-03-12T14:00:20.389Z,47.68
2019-03-12T14:02:47.938Z,47.95
2019-03-12T14:05:15.922Z,47.95
2019-03-12T14:07:45.946Z,48.53
2019-03-12T14:10:13.563Z,48.92
2019-03-12T14:12:46.315Z,48.92
2019-03-12T14:15:31.462Z,48.85
2019-03-12T14:17:59.033Z,48.97
2019-03-12T14:20:27.026Z,48.97
2019-03-12T14:22:56.860Z,48.60
2019-03-12T14:25:26.859Z,48.60
2019-03-12T14:27:54.813Z,48.83
2019-03-12T14:30:22.733Z,48.91
2019-03-12T14:32:50.239Z,48.31
2019-03-12T14:35:18.252Z,48.31
2019-03-12T14:37:47.777Z,48.37
2019-03-12T14:40:15.394Z,48.06
2019-03-12T14:42:43.247Z,48.06
2019-03-12T14:45:10.696Z,47.79
2019-03-12T14:47:38.219Z,47.65
2019-03-12T14:50:06.179Z,47.80
2019-03-12T14:52:33.775Z,47.96
2019-03-12T14:55:01.719Z,47.69
2019-03-12T14:57:29.947Z,47.69
2019-03-12T14:59:57.871Z,47.83
2019-03-12T15:02:25.497Z,47.83
2019-03-12T15:04:53.406Z,48.02
2019-03-12T15:07:20.948Z,48.02
2019-03-12T15:09:50.150Z,48.63
2019-03-12T15:12:19.314Z,48.87
2019-03-12T15:14:47.791Z,48.59
2019-03-12T15:17:15.318Z,48.22
2019-03-12T15:19:43.402Z,48.22
2019-03-12T15:22:10.905Z,48.51
2019-03-12T15:24:38.434Z,48.67
2019-03-12T15:27:06.427Z,48.52
2019-03-12T15:29:33.966Z,48.47
2019-03-12T15:32:04.636Z,48.72
2019-03-12T15:34:33.979Z,48.84
2019-03-12T15:37:01.861Z,48.84
2019-03-12T15:39:32.753Z,48.65
2019-03-12T15:42:00.686Z,48.79
2019-03-12T15:44:28.269Z,48.79
2019-03-12T15:46:56.087Z,48.82
2019-03-12T15:49:23.620Z,48.94
2019-03-12T15:51:51.134Z,48.94
2019-03-12T15:54:18.917Z,48.92
2019-03-12T15:56:46.528Z,48.99
2019-03-12T15:59:16.090Z,48.88
2019-03-12T16:01:43.811Z,48.85
2019-03-12T16:04:29.863Z,48.85
2019-03-12T16:07:01.752Z,48.89
2019-03-12T16:09:27.210Z,49.27
2019-03-12T16:11:57.054Z,48.58
2019-03-12T16:14:27.852Z,48.83
2019-03-12T16:16:57.412Z,48.83
2019-03-12T16:19:27.719Z,49.20
2019-03-12T16:21:57.040Z,48.75
2019-03-12T16:24:24.603Z,48.75
2019-03-12T16:26:52.207Z,48.83
2019-03-12T16:29:21.791Z,48.83
2019-03-12T16:31:50.577Z,48.44
2019-03-12T16:34:27.356Z,48.56
2019-03-12T16:37:11.156Z,48.25
2019-03-12T16:39:26.170Z,47.99
2019-03-12T16:41:53.681Z,48.01
2019-03-12T16:44:21.567Z,48.01
2019-03-12T16:46:49.086Z,47.94
2019-03-12T16:49:16.614Z,47.93
2019-03-12T16:51:47.384Z,47.82
2019-03-12T16:54:14.881Z,47.27
2019-03-12T16:56:45.571Z,47.27
2019-03-12T16:59:15.005Z,47.33
2019-03-12T17:01:42.565Z,47.48
2019-03-12T17:04:10.141Z,47.48
2019-03-12T17:06:37.992Z,47.34
2019-03-12T17:09:05.918Z,47.34
2019-03-12T17:11:33.475Z,47.29
2019-03-12T17:14:09.309Z,47.42
2019-03-12T17:16:37.959Z,47.42
2019-03-12T17:19:05.465Z,46.91
2019-03-12T17:21:38.564Z,46.80
2019-03-12T17:24:09.142Z,46.60
2019-03-12T17:26:36.679Z,46.72
2019-03-12T17:29:04.261Z,46.72
2019-03-12T17:31:37.178Z,46.53
2019-03-12T17:34:05.192Z,46.12
2019-03-12T17:36:32.673Z,46.12
2019-03-12T17:39:00.258Z,45.87
2019-03-12T17:41:28.135Z,45.85
2019-03-12T17:43:57.842Z,46.12
2019-03-12T17:46:30.281Z,46.12
2019-03-12T17:48:58.088Z,45.72
2019-03-12T17:51:34.343Z,45.56
2019-03-12T17:54:02.340Z,45.51
2019-03-12T17:56:30.511Z,45.51
2019-03-12T17:58:58.053Z,45.65
2019-03-12T18:01:30.008Z,45.60
2019-03-12T18:03:57.001Z,45.42
2019-03-12T18:06:24.556Z,44.96
2019-03-12T18:08:52.483Z,44.96
2019-03-12T18:11:21.640Z,44.39
2019-03-12T18:13:49.171Z,44.80
2019-03-12T18:16:22.946Z,44.80
2019-03-12T18:18:53.505Z,44.51
2019-03-12T18:21:25.392Z,44.68
2019-03-12T18:23:50.623Z,44.68
2019-03-12T18:26:22.427Z,44.51
2019-03-12T18:28:50.779Z,44.83
2019-03-12T18:31:18.654Z,44.83
2019-03-12T18:33:46.227Z,44.51
2019-03-12T18:36:13.760Z,44.01
2019-03-12T18:38:41.657Z,44.01
2019-03-12T18:41:13.337Z,43.95
2019-03-12T18:43:40.934Z,44.09
2019-03-12T18:46:08.492Z,44.03
2019-03-12T18:48:38.041Z,43.70
2019-03-12T18:51:05.560Z,43.78
2019-03-12T18:53:33.776Z,43.92
2019-03-12T18:56:01.740Z,43.93
2019-03-12T18:58:29.335Z,43.72
2019-03-12T19:00:57.325Z,43.72
2019-03-12T19:03:31.958Z,43.81
2019-03-12T19:05:59.513Z,43.58
2019-03-12T19:08:30.150Z,43.58
2019-03-12T19:10:57.667Z,43.69
2019-03-12T19:13:25.201Z,43.56
2019-03-12T19:15:58.774Z,43.34
2019-03-12T19:18:26.246Z,43.10
2019-03-12T19:20:56.574Z,43.10
2019-03-12T19:23:27.941Z,42.91
2019-03-12T19:25:55.810Z,42.66
2019-03-12T19:28:23.767Z,42.66
2019-03-12T19:30:53.230Z,42.71
2019-03-12T19:33:21.357Z,42.56
2019-03-12T19:35:51.224Z,42.56
2019-03-12T19:38:24.808Z,42.48
2019-03-12T19:40:54.410Z,42.60
2019-03-12T19:43:23.911Z,42.55
2019-03-12T19:45:51.443Z,42.63
2019-03-12T19:48:23.240Z,42.70
2019-03-12T19:50:49.866Z,42.70
2019-03-12T19:53:21.874Z,42.33
2019-03-12T19:55:49.363Z,42.33
2019-03-12T19:58:17.214Z,42.50
2019-03-12T20:00:47.120Z,43.04
2019-03-12T20:03:15.516Z,44.32
2019-03-12T20:05:43.442Z,45.69
2019-03-12T20:08:10.998Z,46.98
2019-03-12T20:10:38.591Z,49.42
2019-03-12T20:13:06.407Z,50.10
2019-03-12T20:15:35.838Z,50.89
2019-03-12T20:18:09.721Z,51.84
2019-03-12T20:20:37.898Z,51.84
2019-03-12T20:23:07.013Z,52.06
2019-03-12T20:25:34.612Z,52.06
2019-03-12T20:28:04.921Z,53.03
2019-03-12T20:30:36.424Z,53.75
2019-03-12T20:33:06.909Z,53.75
2019-03-12T20:35:34.974Z,53.70
2019-03-12T20:38:02.526Z,53.49
2019-03-12T20:40:32.226Z,53.49
2019-03-12T20:43:05.075Z,54.02
2019-03-12T20:45:34.864Z,54.02
2019-03-12T20:48:02.382Z,54.32
2019-03-12T20:50:31.351Z,54.32
2019-03-12T20:53:00.052Z,55.52
2019-03-12T20:55:27.601Z,55.52
2019-03-12T20:57:55.529Z,55.93
2019-03-12T21:00:23.066Z,56.78
2019-03-12T21:02:50.660Z,58.17
2019-03-12T21:05:21.374Z,58.17
2019-03-12T21:07:52.377Z,58.84
2019-03-12T21:10:22.356Z,59.28
2019-03-12T21:12:50.283Z,59.29
2019-03-12T21:15:20.693Z,58.80
2019-03-12T21:17:49.690Z,59.03
2019-03-12T21:20:17.563Z,59.03
2019-03-12T21:22:47.367Z,59.03
2019-03-12T21:25:15.176Z,58.64
2019-03-12T21:27:44.945Z,58.44
2019-03-12T21:30:14.038Z,58.22
2019-03-12T21:32:41.577Z,58.22
2019-03-12T21:35:09.512Z,57.70
2019-03-12T21:37:37.111Z,57.70
2019-03-12T21:40:06.390Z,56.86
2019-03-12T21:42:34.350Z,57.14
2019-03-12T21:45:02.654Z,57.68
2019-03-12T21:47:31.979Z,58.98
2019-03-12T21:50:03.068Z,59.61
2019-03-12T21:52:30.943Z,60.10
2019-03-12T21:54:58.510Z,60.10
2019-03-12T21:57:26.288Z,61.82
2019-03-12T21:59:56.839Z,63.34
2019-03-12T22:02:24.413Z,66.08
2019-03-12T22:04:55.799Z,66.08
2019-03-12T22:07:23.338Z,66.84
2019-03-12T22:09:55.004Z,67.85
2019-03-12T22:12:23.166Z,69.27
2019-03-12T22:14:50.721Z,69.27
2019-03-12T22:17:18.290Z,70.13
2019-03-12T22:19:49.320Z,70.13
2019-03-12T22:22:23.188Z,70.60
2019-03-12T22:24:50.701Z,70.47
2019-03-12T22:27:18.504Z,70.52
2019-03-12T22:29:46.100Z,71.25
2019-03-12T22:32:13.638Z,71.23
2019-03-12T22:34:42.921Z,71.23
2019-03-12T22:37:10.431Z,71.96
2019-03-12T22:39:39.238Z,71.96
2019-03-12T22:42:07.160Z,71.75
2019-03-12T22:44:34.561Z,71.75
2019-03-12T22:47:02.038Z,72.32
2019-03-12T22:49:30.658Z,72.30
2019-03-12T22:51:58.191Z,72.30
2019-03-12T22:54:25.781Z,72.40
2019-03-12T22:56:53.300Z,72.12
2019-03-12T22:59:21.130Z,72.12
2019-03-12T23:01:48.644Z,71.83
2019-03-12T23:04:21.707Z,71.74
2019-03-12T23:06:49.231Z,71.72
2019-03-12T23:09:19.721Z,71.34
2019-03-12T23:11:47.284Z,71.75
2019-03-12T23:14:14.801Z,71.94
2019-03-12T23:16:46.961Z,71.43
2019-03-12T23:19:14.429Z,71.07
2019-03-12T23:21:41.948Z,71.52
2019-03-12T23:24:12.886Z,71.59
2019-03-12T23:26:40.468Z,71.31
2019-03-12T23:29:14.231Z,71.31
2019-03-12T23:32:04.732Z,71.59
2019-03-12T23:34:32.321Z,71.39
2019-03-12T23:37:00.181Z,71.96
2019-03-12T23:39:27.720Z,71.96
2019-03-12T23:41:55.301Z,71.29
2019-03-12T23:44:25.726Z,71.29
2019-03-12T23:46:53.319Z,71.50
2019-03-12T23:49:23.966Z,71.73
2019-03-12T23:51:51.361Z,71.73
2019-03-12T23:54:21.580Z,71.41
2019-03-12T23:56:49.142Z,71.33
2019-03-12T23:59:16.617Z,71.26
